createdAt,value
2018-02-20T00:00:19.359Z,1003.49
2018-02-20T00:00:59.932Z,1003.47
2018-02-20T00:01:40.500Z,1003.48
2018-02-20T00:02:21.072Z,1003.48
2018-02-20T00:03:01.634Z,1003.48
2018-02-20T00:03:42.199Z,1003.49
2018-02-20T00:04:22.766Z,1003.45
2018-02-20T00:05:03.323Z,1003.53
2018-02-20T00:05:43.886Z,1003.54
2018-02-20T00:06:24.444Z,1003.47
2018-02-20T00:07:04.996Z,1003.5
2018-02-20T00:07:45.550Z,1003.53
2018-02-20T00:08:26.145Z,1003.47
2018-02-20T00:09:06.680Z,1003.52
2018-02-20T00:09:47.268Z,1003.52
2018-02-20T00:10:27.823Z,1003.48
2018-02-20T00:11:08.391Z,1003.55
2018-02-20T00:11:48.955Z,1003.58
2018-02-20T00:12:29.629Z,1003.54
2018-02-20T00:13:10.343Z,1003.52
2018-02-20T00:13:50.914Z,1003.54
2018-02-20T00:14:31.508Z,1003.54
2018-02-20T00:15:12.054Z,1003.53
2018-02-20T00:15:52.611Z,1003.5
2018-02-20T00:16:33.162Z,1003.59
2018-02-20T00:17:13.734Z,1003.55
2018-02-20T00:17:54.300Z,1003.53
2018-02-20T00:18:34.861Z,1003.51
2018-02-20T00:19:15.457Z,1003.53
2018-02-20T00:19:56.018Z,1003.59
2018-02-20T00:20:36.583Z,1003.57
2018-02-20T00:21:17.150Z,1003.57
2018-02-20T00:21:57.705Z,1003.53
2018-02-20T00:22:38.256Z,1003.5
2018-02-20T00:23:18.842Z,1003.52
2018-02-20T00:23:59.402Z,1003.53
2018-02-20T00:24:39.951Z,1003.47
2018-02-20T00:25:20.534Z,1003.44
2018-02-20T00:26:01.041Z,1003.51
2018-02-20T00:26:41.661Z,1003.48
2018-02-20T00:27:22.185Z,1003.52
2018-02-20T00:28:02.738Z,1003.42
2018-02-20T00:28:43.267Z,1003.46
2018-02-20T00:29:23.819Z,1003.44
2018-02-20T00:30:04.398Z,1003.42
2018-02-20T00:30:44.918Z,1003.39
2018-02-20T00:31:25.471Z,1003.39
2018-02-20T00:32:06.026Z,1003.46
2018-02-20T00:32:46.589Z,1003.41
2018-02-20T00:33:27.153Z,1003.41
2018-02-20T00:34:07.713Z,1003.43
2018-02-20T00:34:48.258Z,1003.4
2018-02-20T00:35:28.850Z,1003.43
2018-02-20T00:36:09.403Z,1003.42
2018-02-20T00:36:49.967Z,1003.44
2018-02-20T00:37:30.522Z,1003.44
2018-02-20T00:38:11.101Z,1003.43
2018-02-20T00:38:51.639Z,1003.47
2018-02-20T00:39:32.192Z,1003.4
2018-02-20T00:40:12.759Z,1003.45
2018-02-20T00:40:53.310Z,1003.37
2018-02-20T00:41:33.873Z,1003.41
2018-02-20T00:42:14.423Z,1003.38
2018-02-20T00:42:54.977Z,1003.36
2018-02-20T00:43:35.529Z,1003.36
2018-02-20T00:44:16.068Z,1003.33
2018-02-20T00:44:56.610Z,1003.37
2018-02-20T00:45:37.150Z,1003.35
2018-02-20T00:46:17.697Z,1003.37
2018-02-20T00:46:58.300Z,1003.39
2018-02-20T00:47:38.821Z,1003.34
2018-02-20T00:48:19.358Z,1003.34
2018-02-20T00:48:59.905Z,1003.34
2018-02-20T00:49:40.476Z,1003.35
2018-02-20T00:50:21.018Z,1003.35
2018-02-20T00:51:01.572Z,1003.38
2018-02-20T00:51:42.130Z,1003.4
2018-02-20T00:52:22.697Z,1003.4
2018-02-20T00:53:03.273Z,1003.34
2018-02-20T00:53:43.838Z,1003.36
2018-02-20T00:54:24.392Z,1003.31
2018-02-20T00:55:04.955Z,1003.34
2018-02-20T00:55:45.514Z,1003.3
2018-02-20T00:56:26.066Z,1003.32
2018-02-20T00:57:06.641Z,1003.32
2018-02-20T00:57:47.194Z,1003.25
2018-02-20T00:58:27.761Z,1003.27
2018-02-20T00:59:08.305Z,1003.29
2018-02-20T00:59:48.921Z,1003.34
2018-02-20T01:00:29.437Z,1003.28
2018-02-20T01:01:09.952Z,1003.35
2018-02-20T01:01:50.479Z,1003.25
2018-02-20T01:02:31.061Z,1003.21
2018-02-20T01:03:11.609Z,1003.24
2018-02-20T01:03:52.157Z,1003.31
2018-02-20T01:04:32.723Z,1003.29
2018-02-20T01:05:13.274Z,1003.26
2018-02-20T01:05:53.818Z,1003.27
2018-02-20T01:06:34.368Z,1003.28
2018-02-20T01:07:14.927Z,1003.27
2018-02-20T01:07:55.476Z,1003.27
2018-02-20T01:08:36.034Z,1003.34
2018-02-20T01:09:16.591Z,1003.26
2018-02-20T01:09:57.152Z,1003.24
2018-02-20T01:10:37.723Z,1003.28
2018-02-20T01:11:18.280Z,1003.26
2018-02-20T01:11:58.854Z,1003.27
2018-02-20T01:12:39.401Z,1003.27
2018-02-20T01:13:19.965Z,1003.31
2018-02-20T01:14:00.541Z,1003.35
2018-02-20T01:14:41.093Z,1003.33
2018-02-20T01:15:22.508Z,1003.24
2018-02-20T01:16:02.225Z,1003.28
2018-02-20T01:16:42.778Z,1003.28
2018-02-20T01:17:23.339Z,1003.23
2018-02-20T01:18:03.897Z,1003.26
2018-02-20T01:18:44.459Z,1003.25
2018-02-20T01:19:25.020Z,1003.27
2018-02-20T01:20:05.571Z,1003.27
2018-02-20T01:20:46.128Z,1003.29
2018-02-20T01:21:26.707Z,1003.27
2018-02-20T01:22:07.262Z,1003.23
2018-02-20T01:22:47.815Z,1003.27
2018-02-20T01:23:28.386Z,1003.24
2018-02-20T01:24:08.969Z,1003.29
2018-02-20T01:24:49.524Z,1003.29
2018-02-20T01:25:30.063Z,1003.27
2018-02-20T01:26:10.635Z,1003.28
2018-02-20T01:26:51.163Z,1003.31
2018-02-20T01:27:31.715Z,1003.31
2018-02-20T01:28:12.300Z,1003.28
2018-02-20T01:28:52.865Z,1003.33
2018-02-20T01:29:33.428Z,1003.32
2018-02-20T01:30:13.993Z,1003.27
2018-02-20T01:30:54.575Z,1003.28
2018-02-20T01:31:35.139Z,1003.29
2018-02-20T01:32:15.690Z,1003.3
2018-02-20T01:32:56.247Z,1003.33
2018-02-20T01:33:36.839Z,1003.33
2018-02-20T01:34:17.420Z,1003.29
2018-02-20T01:34:57.977Z,1003.27
2018-02-20T01:35:38.510Z,1003.25
2018-02-20T01:36:19.077Z,1003.28
2018-02-20T01:36:59.619Z,1003.27
2018-02-20T01:37:40.148Z,1003.25
2018-02-20T01:38:20.678Z,1003.22
2018-02-20T01:39:01.186Z,1003.24
2018-02-20T01:39:41.698Z,1003.25
2018-02-20T01:40:22.224Z,1003.18
2018-02-20T01:41:02.774Z,1003.18
2018-02-20T01:41:43.321Z,1003.19
2018-02-20T01:42:23.903Z,1003.19
2018-02-20T01:43:04.481Z,1003.16
2018-02-20T01:43:45.004Z,1003.15
2018-02-20T01:44:25.572Z,1003.15
2018-02-20T01:45:06.061Z,1003.19
2018-02-20T01:45:46.625Z,1003.26
2018-02-20T01:46:27.185Z,1003.19
2018-02-20T01:47:07.741Z,1003.22
2018-02-20T01:47:48.296Z,1003.19
2018-02-20T01:48:28.857Z,1003.17
2018-02-20T01:49:09.412Z,1003.18
2018-02-20T01:49:49.978Z,1003.22
2018-02-20T01:50:30.531Z,1003.19
2018-02-20T01:51:11.113Z,1003.2
2018-02-20T01:51:51.695Z,1003.21
2018-02-20T01:52:32.246Z,1003.18
2018-02-20T01:53:12.811Z,1003.18
2018-02-20T01:53:53.360Z,1003.17
2018-02-20T01:54:33.938Z,1003.12
2018-02-20T01:55:14.501Z,1003.16
2018-02-20T01:55:55.055Z,1003.18
2018-02-20T01:56:35.602Z,1003.18
2018-02-20T01:57:16.243Z,1003.17
2018-02-20T01:57:57.539Z,1003.18
2018-02-20T01:58:38.099Z,1003.18
2018-02-20T01:59:18.666Z,1003.17
2018-02-20T01:59:59.143Z,1003.15
2018-02-20T02:00:39.680Z,1003.15
2018-02-20T02:01:20.228Z,1003.14
2018-02-20T02:02:00.731Z,1003.09
2018-02-20T02:02:41.257Z,1003.17
2018-02-20T02:03:21.813Z,1003.09
2018-02-20T02:04:02.380Z,1003.16
2018-02-20T02:04:42.924Z,1003.16
2018-02-20T02:05:23.485Z,1003.14
2018-02-20T02:06:04.055Z,1003.19
2018-02-20T02:06:44.647Z,1003.13
2018-02-20T02:07:25.179Z,1003.09
2018-02-20T02:08:05.717Z,1003.13
2018-02-20T02:08:46.269Z,1003.16
2018-02-20T02:09:26.901Z,1003.09
2018-02-20T02:10:07.445Z,1003.17
2018-02-20T02:10:47.992Z,1003.15
2018-02-20T02:11:28.481Z,1003.13
2018-02-20T02:12:09.012Z,1003.15
2018-02-20T02:12:49.572Z,1003.12
2018-02-20T02:13:30.037Z,1003.13
2018-02-20T02:14:10.603Z,1003.17
2018-02-20T02:14:51.109Z,1003.2
2018-02-20T02:15:31.674Z,1003.17
2018-02-20T02:16:12.240Z,1003.15
2018-02-20T02:16:52.773Z,1003.15
2018-02-20T02:17:33.308Z,1003.16
2018-02-20T02:18:13.817Z,1003.18
2018-02-20T02:18:54.390Z,1003.13
2018-02-20T02:19:34.968Z,1003.13
2018-02-20T02:20:15.472Z,1003.11
2018-02-20T02:20:56.003Z,1003.12
2018-02-20T02:21:36.570Z,1003.15
2018-02-20T02:22:17.164Z,1003.1
2018-02-20T02:22:57.683Z,1003.11
2018-02-20T02:23:38.207Z,1003.1
2018-02-20T02:24:18.743Z,1003.15
2018-02-20T02:24:59.258Z,1003.15
2018-02-20T02:25:39.822Z,1003.17
2018-02-20T02:26:20.363Z,1003.17
2018-02-20T02:27:00.890Z,1003.19
2018-02-20T02:27:41.416Z,1003.15
2018-02-20T02:28:21.978Z,1003.18
2018-02-20T02:29:02.445Z,1003.13
2018-02-20T02:29:42.986Z,1003.18
2018-02-20T02:30:23.573Z,1003.18
2018-02-20T02:31:04.047Z,1003.13
2018-02-20T02:31:44.613Z,1003.14
2018-02-20T02:32:25.133Z,1003.16
2018-02-20T02:33:05.701Z,1003.16
2018-02-20T02:33:46.234Z,1003.15
2018-02-20T02:34:26.777Z,1003.12
2018-02-20T02:35:07.281Z,1003.13
2018-02-20T02:35:47.832Z,1003.13
2018-02-20T02:36:28.346Z,1003.16
2018-02-20T02:37:08.861Z,1003.16
2018-02-20T02:37:49.405Z,1003.18
2018-02-20T02:38:29.970Z,1003.17
2018-02-20T02:39:10.518Z,1003.13
2018-02-20T02:39:51.053Z,1003.18
2018-02-20T02:40:31.624Z,1003.12
2018-02-20T02:41:12.150Z,1003.16
2018-02-20T02:41:52.695Z,1003.16
2018-02-20T02:42:33.242Z,1003.17
2018-02-20T02:43:13.764Z,1003.16
2018-02-20T02:43:54.302Z,1003.15
2018-02-20T02:44:34.861Z,1003.18
2018-02-20T02:45:15.432Z,1003.19
2018-02-20T02:45:55.995Z,1003.21
2018-02-20T02:46:36.572Z,1003.2
2018-02-20T02:47:17.124Z,1003.22
2018-02-20T02:47:57.680Z,1003.2
2018-02-20T02:48:38.338Z,1003.22
2018-02-20T02:49:18.802Z,1003.23
2018-02-20T02:49:59.401Z,1003.2
2018-02-20T02:50:39.960Z,1003.22
2018-02-20T02:51:20.518Z,1003.24
2018-02-20T02:52:01.086Z,1003.25
2018-02-20T02:52:41.642Z,1003.24
2018-02-20T02:53:22.216Z,1003.2
2018-02-20T02:54:02.754Z,1003.19
2018-02-20T02:54:43.324Z,1003.27
2018-02-20T02:55:23.890Z,1003.2
2018-02-20T02:56:04.456Z,1003.13
2018-02-20T02:56:45.020Z,1003.16
2018-02-20T02:57:25.599Z,1003.17
2018-02-20T02:58:06.142Z,1003.18
2018-02-20T02:58:46.696Z,1003.16
2018-02-20T02:59:27.257Z,1003.15
2018-02-20T03:00:07.826Z,1003.16
2018-02-20T03:00:48.391Z,1003.14
2018-02-20T03:01:29.060Z,1003.13
2018-02-20T03:02:09.616Z,1003.16
2018-02-20T03:02:50.157Z,1003.14
2018-02-20T03:03:30.706Z,1003.14
2018-02-20T03:04:11.266Z,1003.2
2018-02-20T03:04:51.838Z,1003.16
2018-02-20T03:05:32.398Z,1003.17
2018-02-20T03:06:12.976Z,1003.16
2018-02-20T03:06:53.533Z,1003.19
2018-02-20T03:07:34.115Z,1003.19
2018-02-20T03:08:14.652Z,1003.16
2018-02-20T03:08:55.204Z,1003.15
2018-02-20T03:09:35.737Z,1003.12
2018-02-20T03:10:16.288Z,1003.13
2018-02-20T03:10:56.843Z,1003.15
2018-02-20T03:11:37.389Z,1003.11
2018-02-20T03:12:17.947Z,1003.1
2018-02-20T03:12:58.487Z,1003.19
2018-02-20T03:13:39.041Z,1003.15
2018-02-20T03:14:19.601Z,1003.16
2018-02-20T03:15:00.162Z,1003.12
2018-02-20T03:15:40.700Z,1003.11
2018-02-20T03:16:21.251Z,1003.11
2018-02-20T03:17:01.813Z,1003.12
2018-02-20T03:17:42.383Z,1003.11
2018-02-20T03:18:22.936Z,1003.14
2018-02-20T03:19:03.505Z,1003.14
2018-02-20T03:19:44.059Z,1003.1
2018-02-20T03:20:24.615Z,1003.1
2018-02-20T03:21:05.195Z,1003.09
2018-02-20T03:21:45.766Z,1003.09
2018-02-20T03:22:26.326Z,1003.12
2018-02-20T03:23:06.879Z,1003.08
2018-02-20T03:23:47.447Z,1003.12
2018-02-20T03:24:28.011Z,1003.15
2018-02-20T03:25:08.554Z,1003.1
2018-02-20T03:25:49.117Z,1003.14
2018-02-20T03:26:29.690Z,1003.19
2018-02-20T03:27:10.299Z,1003.17
2018-02-20T03:27:50.837Z,1003.15
2018-02-20T03:28:31.401Z,1003.1
2018-02-20T03:29:11.956Z,1003.08
2018-02-20T03:29:52.521Z,1003.13
2018-02-20T03:30:33.080Z,1003.1
2018-02-20T03:31:13.646Z,1003.05
2018-02-20T03:31:54.189Z,1003.1
2018-02-20T03:32:34.764Z,1003.08
2018-02-20T03:33:15.310Z,1003.12
2018-02-20T03:33:55.857Z,1003.1
2018-02-20T03:34:36.410Z,1003.15
2018-02-20T03:35:16.968Z,1003.12
2018-02-20T03:35:57.524Z,1003.13
2018-02-20T03:36:38.078Z,1003.19
2018-02-20T03:37:18.637Z,1003.17
2018-02-20T03:37:59.193Z,1003.15
2018-02-20T03:38:39.741Z,1003.17
2018-02-20T03:39:20.290Z,1003.18
2018-02-20T03:40:00.888Z,1003.17
2018-02-20T03:40:41.437Z,1003.18
2018-02-20T03:41:22.028Z,1003.16
2018-02-20T03:42:02.575Z,1003.2
2018-02-20T03:42:43.140Z,1003.22
2018-02-20T03:43:23.674Z,1003.2
2018-02-20T03:44:04.229Z,1003.17
2018-02-20T03:44:44.773Z,1003.19
2018-02-20T03:45:25.327Z,1003.14
2018-02-20T03:46:05.889Z,1003.18
2018-02-20T03:46:46.451Z,1003.24
2018-02-20T03:47:27.005Z,1003.17
2018-02-20T03:48:07.557Z,1003.18
2018-02-20T03:48:48.098Z,1003.18
2018-02-20T03:49:28.654Z,1003.18
2018-02-20T03:50:09.212Z,1003.2
2018-02-20T03:50:49.775Z,1003.17
2018-02-20T03:51:30.329Z,1003.17
2018-02-20T03:52:10.890Z,1003.17
2018-02-20T03:52:51.485Z,1003.11
2018-02-20T03:53:32.025Z,1003.14
2018-02-20T03:54:12.586Z,1003.1
2018-02-20T03:54:53.149Z,1003.17
2018-02-20T03:55:33.737Z,1003.09
2018-02-20T03:56:14.293Z,1003.09
2018-02-20T03:56:54.853Z,1003.08
2018-02-20T03:57:35.437Z,1003.1
2018-02-20T03:58:16.012Z,1003.09
2018-02-20T03:58:56.607Z,1003.04
2018-02-20T03:59:37.167Z,1003.03
2018-02-20T04:00:17.726Z,1003.05
2018-02-20T04:00:58.279Z,1003.02
2018-02-20T04:01:38.853Z,1002.97
2018-02-20T04:02:19.424Z,1003
2018-02-20T04:02:59.988Z,1002.96
2018-02-20T04:03:40.549Z,1002.97
2018-02-20T04:04:21.108Z,1002.98
2018-02-20T04:05:01.689Z,1002.98
2018-02-20T04:05:42.194Z,1002.97
2018-02-20T04:06:22.767Z,1002.95
2018-02-20T04:07:03.332Z,1002.94
2018-02-20T04:07:43.891Z,1002.95
2018-02-20T04:08:24.450Z,1002.97
2018-02-20T04:09:05.011Z,1002.96
2018-02-20T04:09:45.564Z,1002.95
2018-02-20T04:10:26.128Z,1002.96
2018-02-20T04:11:06.684Z,1002.96
2018-02-20T04:11:47.275Z,1002.93
2018-02-20T04:12:27.830Z,1002.92
2018-02-20T04:13:08.392Z,1002.88
2018-02-20T04:13:48.960Z,1002.99
2018-02-20T04:14:29.521Z,1002.94
2018-02-20T04:15:10.071Z,1002.89
2018-02-20T04:15:50.625Z,1002.91
2018-02-20T04:16:31.186Z,1002.92
2018-02-20T04:17:11.744Z,1002.89
2018-02-20T04:17:52.321Z,1002.87
2018-02-20T04:18:32.888Z,1002.91
2018-02-20T04:19:13.448Z,1002.92
2018-02-20T04:19:54.011Z,1002.9
2018-02-20T04:20:34.574Z,1002.9
2018-02-20T04:21:15.131Z,1002.9
2018-02-20T04:21:55.691Z,1002.89
2018-02-20T04:22:36.266Z,1002.92
2018-02-20T04:23:16.817Z,1002.91
2018-02-20T04:23:57.368Z,1002.91
2018-02-20T04:24:37.943Z,1002.89
2018-02-20T04:25:18.474Z,1002.87
2018-02-20T04:25:59.012Z,1002.95
2018-02-20T04:26:39.571Z,1002.92
2018-02-20T04:27:20.073Z,1002.97
2018-02-20T04:28:00.663Z,1002.96
2018-02-20T04:28:41.182Z,1002.96
2018-02-20T04:29:21.704Z,1002.95
2018-02-20T04:30:02.243Z,1002.93
2018-02-20T04:30:42.808Z,1002.96
2018-02-20T04:31:23.303Z,1002.95
2018-02-20T04:32:03.823Z,1002.96
2018-02-20T04:32:44.353Z,1002.96
2018-02-20T04:33:24.916Z,1003
2018-02-20T04:34:05.439Z,1002.99
2018-02-20T04:34:46.002Z,1003.01
2018-02-20T04:35:26.495Z,1002.98
2018-02-20T04:36:07.058Z,1002.99
2018-02-20T04:36:47.610Z,1003.02
2018-02-20T04:37:28.203Z,1002.99
2018-02-20T04:38:08.748Z,1002.99
2018-02-20T04:38:49.209Z,1003.04
2018-02-20T04:39:29.774Z,1002.96
2018-02-20T04:40:10.490Z,1003.06
2018-02-20T04:40:51.015Z,1003.03
2018-02-20T04:41:31.583Z,1003
2018-02-20T04:42:12.140Z,1003.03
2018-02-20T04:42:52.709Z,1003.04
2018-02-20T04:43:33.294Z,1003.03
2018-02-20T04:44:13.829Z,1003.03
2018-02-20T04:44:54.398Z,1003.03
2018-02-20T04:45:34.953Z,1003.01
2018-02-20T04:46:15.507Z,1003.02
2018-02-20T04:46:56.057Z,1003.06
2018-02-20T04:47:36.638Z,1003.04
2018-02-20T04:48:17.193Z,1003.02
2018-02-20T04:48:57.748Z,1003.04
2018-02-20T04:49:38.313Z,1003.04
2018-02-20T04:50:18.888Z,1003.07
2018-02-20T04:50:59.451Z,1003.11
2018-02-20T04:51:39.993Z,1003.06
2018-02-20T04:52:20.639Z,1003.06
2018-02-20T04:53:01.203Z,1003.07
2018-02-20T04:53:41.747Z,1003.09
2018-02-20T04:54:22.309Z,1003.09
2018-02-20T04:55:02.880Z,1003.1
2018-02-20T04:55:43.444Z,1003.06
2018-02-20T04:56:24.079Z,1003.01
2018-02-20T04:57:04.662Z,1003.08
2018-02-20T04:57:45.220Z,1003.06
2018-02-20T04:58:25.771Z,1003.03
2018-02-20T04:59:06.319Z,1003.01
2018-02-20T04:59:46.883Z,1002.99
2018-02-20T05:00:27.433Z,1002.99
2018-02-20T05:01:07.987Z,1002.97
2018-02-20T05:01:48.552Z,1003
2018-02-20T05:02:29.122Z,1002.98
2018-02-20T05:03:09.682Z,1003.01
2018-02-20T05:03:50.244Z,1002.98
2018-02-20T05:04:30.816Z,1002.97
2018-02-20T05:05:11.395Z,1002.99
2018-02-20T05:05:51.964Z,1002.99
2018-02-20T05:06:32.514Z,1002.99
2018-02-20T05:07:13.066Z,1002.98
2018-02-20T05:07:53.618Z,1003.02
2018-02-20T05:08:34.172Z,1002.99
2018-02-20T05:09:14.735Z,1003.02
2018-02-20T05:09:55.299Z,1003
2018-02-20T05:10:35.863Z,1003.02
2018-02-20T05:11:16.420Z,1002.99
2018-02-20T05:11:56.972Z,1003.01
2018-02-20T05:12:37.535Z,1003
2018-02-20T05:13:18.105Z,1002.97
2018-02-20T05:13:58.662Z,1003.02
2018-02-20T05:14:39.228Z,1003
2018-02-20T05:15:19.785Z,1002.97
2018-02-20T05:16:00.396Z,1002.97
2018-02-20T05:16:40.950Z,1002.99
2018-02-20T05:17:21.548Z,1002.99
2018-02-20T05:18:02.064Z,1002.97
2018-02-20T05:18:42.615Z,1002.98
2018-02-20T05:19:23.177Z,1003.01
2018-02-20T05:20:03.730Z,1002.98
2018-02-20T05:20:44.280Z,1002.98
2018-02-20T05:21:24.835Z,1002.96
2018-02-20T05:22:05.430Z,1003.03
2018-02-20T05:22:45.995Z,1003.03
2018-02-20T05:23:26.547Z,1003.04
2018-02-20T05:24:07.095Z,1003
2018-02-20T05:24:47.673Z,1003.03
2018-02-20T05:25:28.229Z,1003.01
2018-02-20T05:26:08.774Z,1003
2018-02-20T05:26:49.322Z,1003.03
2018-02-20T05:27:29.893Z,1003.1
2018-02-20T05:28:10.445Z,1003.03
2018-02-20T05:28:51.123Z,1003.05
2018-02-20T05:29:31.684Z,1003.04
2018-02-20T05:30:12.252Z,1003.05
2018-02-20T05:30:52.813Z,1003.1
2018-02-20T05:31:33.380Z,1003.06
2018-02-20T05:32:13.945Z,1003.07
2018-02-20T05:32:54.493Z,1003.06
2018-02-20T05:33:35.049Z,1003.09
2018-02-20T05:34:15.605Z,1003.05
2018-02-20T05:34:56.158Z,1003.06
2018-02-20T05:35:36.706Z,1003.07
2018-02-20T05:36:17.263Z,1003.06
2018-02-20T05:36:57.825Z,1003.08
2018-02-20T05:37:38.395Z,1003.07
2018-02-20T05:38:18.958Z,1003.12
2018-02-20T05:38:59.517Z,1003.11
2018-02-20T05:39:40.087Z,1003.1
2018-02-20T05:40:20.638Z,1003.07
2018-02-20T05:41:01.284Z,1003.08
2018-02-20T05:41:41.850Z,1003.11
2018-02-20T05:42:22.416Z,1003.11
2018-02-20T05:43:02.978Z,1003.14
2018-02-20T05:43:43.560Z,1003.16
2018-02-20T05:44:24.141Z,1003.15
2018-02-20T05:45:04.704Z,1003.15
2018-02-20T05:45:45.266Z,1003.24
2018-02-20T05:46:25.840Z,1003.22
2018-02-20T05:47:06.477Z,1003.17
2018-02-20T05:47:47.022Z,1003.18
2018-02-20T05:48:27.579Z,1003.24
2018-02-20T05:49:08.124Z,1003.23
2018-02-20T05:49:48.673Z,1003.21
2018-02-20T05:50:29.234Z,1003.25
2018-02-20T05:51:09.816Z,1003.19
2018-02-20T05:51:50.371Z,1003.25
2018-02-20T05:52:30.923Z,1003.22
2018-02-20T05:53:11.481Z,1003.23
2018-02-20T05:53:52.039Z,1003.26
2018-02-20T05:54:32.600Z,1003.23
2018-02-20T05:55:13.161Z,1003.2
2018-02-20T05:55:53.735Z,1003.27
2018-02-20T05:56:34.411Z,1003.29
2018-02-20T05:57:14.976Z,1003.3
2018-02-20T05:57:55.572Z,1003.27
2018-02-20T05:58:36.097Z,1003.26
2018-02-20T05:59:16.645Z,1003.25
2018-02-20T05:59:57.235Z,1003.3
2018-02-20T06:00:37.769Z,1003.27
2018-02-20T06:01:18.330Z,1003.26
2018-02-20T06:01:58.907Z,1003.28
2018-02-20T06:02:39.473Z,1003.3
2018-02-20T06:03:20.028Z,1003.24
2018-02-20T06:04:00.588Z,1003.31
2018-02-20T06:04:41.132Z,1003.32
2018-02-20T06:05:21.697Z,1003.32
2018-02-20T06:06:02.236Z,1003.36
2018-02-20T06:06:42.813Z,1003.35
2018-02-20T06:07:23.375Z,1003.3
2018-02-20T06:08:03.993Z,1003.34
2018-02-20T06:08:44.550Z,1003.39
2018-02-20T06:09:25.107Z,1003.37
2018-02-20T06:10:05.652Z,1003.34
2018-02-20T06:10:46.194Z,1003.37
2018-02-20T06:11:26.776Z,1003.34
2018-02-20T06:12:07.372Z,1003.39
2018-02-20T06:12:47.937Z,1003.35
2018-02-20T06:13:28.499Z,1003.38
2018-02-20T06:14:09.060Z,1003.31
2018-02-20T06:14:49.599Z,1003.36
2018-02-20T06:15:30.139Z,1003.33
2018-02-20T06:16:10.651Z,1003.37
2018-02-20T06:16:51.208Z,1003.32
2018-02-20T06:17:31.746Z,1003.35
2018-02-20T06:18:12.303Z,1003.36
2018-02-20T06:18:52.861Z,1003.37
2018-02-20T06:19:33.407Z,1003.4
2018-02-20T06:20:13.954Z,1003.37
2018-02-20T06:20:54.490Z,1003.33
2018-02-20T06:21:35.723Z,1003.37
2018-02-20T06:22:16.293Z,1003.37
2018-02-20T06:22:56.849Z,1003.38
2018-02-20T06:23:37.405Z,1003.37
2018-02-20T06:24:17.969Z,1003.32
2018-02-20T06:24:58.539Z,1003.36
2018-02-20T06:25:39.088Z,1003.4
2018-02-20T06:26:19.652Z,1003.46
2018-02-20T06:27:00.177Z,1003.38
2018-02-20T06:27:40.727Z,1003.39
2018-02-20T06:28:21.273Z,1003.46
2018-02-20T06:29:01.855Z,1003.4
2018-02-20T06:29:42.431Z,1003.51
2018-02-20T06:30:22.940Z,1003.42
2018-02-20T06:31:03.579Z,1003.46
2018-02-20T06:31:44.125Z,1003.44
2018-02-20T06:32:24.692Z,1003.45
2018-02-20T06:33:05.279Z,1003.42
2018-02-20T06:33:45.857Z,1003.43
2018-02-20T06:34:26.416Z,1003.4
2018-02-20T06:35:06.940Z,1003.44
2018-02-20T06:35:47.508Z,1003.49
2018-02-20T06:36:28.099Z,1003.45
2018-02-20T06:37:08.820Z,1003.49
2018-02-20T06:37:49.479Z,1003.46
2018-02-20T06:38:30.043Z,1003.46
2018-02-20T06:39:10.590Z,1003.48
2018-02-20T06:39:51.169Z,1003.44
2018-02-20T06:40:31.688Z,1003.45
2018-02-20T06:41:12.234Z,1003.46
2018-02-20T06:41:52.804Z,1003.45
2018-02-20T06:42:33.355Z,1003.49
2018-02-20T06:43:13.900Z,1003.52
2018-02-20T06:43:54.599Z,1003.47
2018-02-20T06:44:35.188Z,1003.47
2018-02-20T06:45:15.870Z,1003.48
2018-02-20T06:45:56.286Z,1003.51
2018-02-20T06:46:36.876Z,1003.5
2018-02-20T06:47:17.736Z,1003.51
2018-02-20T06:47:58.369Z,1003.54
2018-02-20T06:48:38.885Z,1003.56
2018-02-20T06:49:19.513Z,1003.57
2018-02-20T06:50:00.418Z,1003.54
2018-02-20T06:50:41.029Z,1003.55
2018-02-20T06:51:21.547Z,1003.57
2018-02-20T06:52:02.174Z,1003.62
2018-02-20T06:52:42.724Z,1003.54
2018-02-20T06:53:23.320Z,1003.57
2018-02-20T06:54:04.136Z,1003.59
2018-02-20T06:54:44.705Z,1003.61
2018-02-20T06:55:25.266Z,1003.63
2018-02-20T06:56:05.813Z,1003.61
2018-02-20T06:56:46.380Z,1003.6
2018-02-20T06:57:27.007Z,1003.65
2018-02-20T06:58:07.550Z,1003.62
2018-02-20T06:58:48.125Z,1003.63
2018-02-20T06:59:28.751Z,1003.61
2018-02-20T07:00:09.310Z,1003.59
2018-02-20T07:00:49.998Z,1003.62
2018-02-20T07:01:30.580Z,1003.66
2018-02-20T07:02:11.169Z,1003.66
2018-02-20T07:02:51.759Z,1003.68
2018-02-20T07:03:32.294Z,1003.65
2018-02-20T07:04:12.855Z,1003.65
2018-02-20T07:04:53.421Z,1003.63
2018-02-20T07:05:33.984Z,1003.64
2018-02-20T07:06:14.541Z,1003.68
2018-02-20T07:06:55.080Z,1003.69
2018-02-20T07:07:35.649Z,1003.66
2018-02-20T07:08:16.211Z,1003.72
2018-02-20T07:08:56.785Z,1003.72
2018-02-20T07:09:37.350Z,1003.68
2018-02-20T07:10:17.937Z,1003.69
2018-02-20T07:10:58.514Z,1003.69
2018-02-20T07:11:39.060Z,1003.71
2018-02-20T07:12:19.604Z,1003.67
2018-02-20T07:13:00.164Z,1003.63
2018-02-20T07:13:40.728Z,1003.66
2018-02-20T07:14:21.289Z,1003.69
2018-02-20T07:15:01.841Z,1003.64
2018-02-20T07:15:42.384Z,1003.67
2018-02-20T07:16:22.973Z,1003.66
2018-02-20T07:17:03.586Z,1003.66
2018-02-20T07:17:44.168Z,1003.66
2018-02-20T07:18:24.730Z,1003.64
2018-02-20T07:19:05.290Z,1003.71
2018-02-20T07:19:45.834Z,1003.64
2018-02-20T07:20:27.077Z,1003.67
2018-02-20T07:21:07.211Z,1003.67
2018-02-20T07:21:47.768Z,1003.68
2018-02-20T07:22:28.340Z,1003.68
2018-02-20T07:23:08.908Z,1003.71
2018-02-20T07:23:49.662Z,1003.68
2018-02-20T07:24:30.259Z,1003.71
2018-02-20T07:25:10.866Z,1003.68
2018-02-20T07:25:51.466Z,1003.69
2018-02-20T07:26:32.052Z,1003.72
2018-02-20T07:27:12.627Z,1003.73
2018-02-20T07:27:53.174Z,1003.71
2018-02-20T07:28:33.730Z,1003.69
2018-02-20T07:29:14.487Z,1003.72
2018-02-20T07:29:54.922Z,1003.7
2018-02-20T07:30:35.529Z,1003.74
2018-02-20T07:31:16.093Z,1003.73
2018-02-20T07:31:56.661Z,1003.74
2018-02-20T07:32:37.270Z,1003.81
2018-02-20T07:33:17.854Z,1003.72
2018-02-20T07:33:58.474Z,1003.73
2018-02-20T07:34:39.039Z,1003.77
2018-02-20T07:35:19.563Z,1003.73
2018-02-20T07:36:00.246Z,1003.75
2018-02-20T07:36:40.784Z,1003.78
2018-02-20T07:37:21.365Z,1003.76
2018-02-20T07:38:01.922Z,1003.78
2018-02-20T07:38:42.484Z,1003.76
2018-02-20T07:39:23.096Z,1003.8
2018-02-20T07:40:03.640Z,1003.85
2018-02-20T07:40:44.191Z,1003.81
2018-02-20T07:41:24.777Z,1003.77
2018-02-20T07:42:05.270Z,1003.8
2018-02-20T07:42:45.832Z,1003.71
2018-02-20T07:43:26.385Z,1003.79
2018-02-20T07:44:07.026Z,1003.77
2018-02-20T07:44:47.653Z,1003.77
2018-02-20T07:45:28.206Z,1003.8
2018-02-20T07:46:08.895Z,1003.8
2018-02-20T07:46:49.489Z,1003.8
2018-02-20T07:47:30.083Z,1003.84
2018-02-20T07:48:10.723Z,1003.86
2018-02-20T07:48:51.264Z,1003.82
2018-02-20T07:49:31.829Z,1003.79
2018-02-20T07:50:12.393Z,1003.82
2018-02-20T07:50:52.952Z,1003.83
2018-02-20T07:51:33.519Z,1003.82
2018-02-20T07:52:14.105Z,1003.77
2018-02-20T07:52:54.655Z,1003.78
2018-02-20T07:53:35.185Z,1003.8
2018-02-20T07:54:15.770Z,1003.78
2018-02-20T07:54:56.322Z,1003.83
2018-02-20T07:55:36.859Z,1003.84
2018-02-20T07:56:17.430Z,1003.81
2018-02-20T07:56:57.986Z,1003.83
2018-02-20T07:57:38.557Z,1003.83
2018-02-20T07:58:19.148Z,1003.83
2018-02-20T07:58:59.667Z,1003.83
2018-02-20T07:59:40.404Z,1003.82
2018-02-20T08:00:20.989Z,1003.78
2018-02-20T08:01:01.563Z,1003.84
2018-02-20T08:01:42.134Z,1003.83
2018-02-20T08:02:22.700Z,1003.82
2018-02-20T08:03:03.235Z,1003.87
2018-02-20T08:03:43.811Z,1003.81
2018-02-20T08:04:24.366Z,1003.79
2018-02-20T08:05:04.927Z,1003.79
2018-02-20T08:05:45.498Z,1003.76
2018-02-20T08:06:26.067Z,1003.77
2018-02-20T08:07:06.637Z,1003.74
2018-02-20T08:07:47.195Z,1003.75
2018-02-20T08:08:27.885Z,1003.79
2018-02-20T08:09:08.440Z,1003.75
2018-02-20T08:09:48.972Z,1003.77
2018-02-20T08:10:29.549Z,1003.75
2018-02-20T08:11:10.116Z,1003.76
2018-02-20T08:11:50.721Z,1003.76
2018-02-20T08:12:31.278Z,1003.72